Douglas B — WDH8545 — position and weather

sailwx.info

Track history (hours):
 
Tides and Currents Weather Stations Pressure Air Temp Water Temp Dewpoint Dewpoint Depression Visibility Wind Speed Wind Dir Waves Ship Positions

Douglas B

Owner: TK TOWING, INC, MORGAN CITY, LA. More information available from US FCC via Universal Licensing System and Coast Guard Vessel Documentation Center.

Last reported at 2018-Feb-13 21:25 UTC. Time now 2018-Feb-24 15:58 UTC.
Position N 29°32' W 090°51'.
Warning: this ship's position is 10 days out of date.

Length 22 m; draft 8 m.

Type: Towing. MMSI: 367659090.

Date/timePositionNaut miles runAvg speedWind from/ knotsBaromVisibWave heightAir tempDewpointWater temp
2018-Feb-13 21:25N 29°32' W 090°51'3 6.6
2018-Feb-13 21:00N 29°32' W 090°48'3 5.7
2018-Feb-13 20:30N 29°34' W 090°45'2 3.9
2018-Feb-13 20:00N 29°34' W 090°43'1 2.7
2018-Feb-13 19:30N 29°33' W 090°41'0 0.0
2018-Feb-13 19:00N 29°33' W 090°41'0 0.0
2018-Feb-13 18:30N 29°33' W 090°41'0 0.0
2018-Feb-13 18:00N 29°33' W 090°41'0 0.0
2018-Feb-13 17:30N 29°33' W 090°41'0 0.0
2018-Feb-13 17:00N 29°33' W 090°41'0 0.0
2018-Feb-13 16:30N 29°33' W 090°41'0 0.0
2018-Feb-13 16:00N 29°33' W 090°41'0 0.0
2018-Feb-13 15:30N 29°33' W 090°41'0 0.0
2018-Feb-13 15:00N 29°33' W 090°41'0 0.0
2018-Feb-13 14:30N 29°33' W 090°41'0 0.0
2018-Feb-13 14:00N 29°33' W 090°41'0 0.0
2018-Feb-13 13:30N 29°33' W 090°41'0 0.5
2018-Feb-13 13:00N 29°33' W 090°42'0 0.5
2018-Feb-13 12:30N 29°33' W 090°42'0 0.0
2018-Feb-13 12:00N 29°33' W 090°42'0 0.0
2018-Feb-13 11:30N 29°33' W 090°42'0 0.0
2018-Feb-13 11:00N 29°33' W 090°42'0 0.0
2018-Feb-13 10:30N 29°33' W 090°42'0 0.0
2018-Feb-13 10:00N 29°33' W 090°42'0 0.0
2018-Feb-13 09:30N 29°33' W 090°42'0 0.0
2018-Feb-13 09:00N 29°33' W 090°42'0 0.0
2018-Feb-13 08:30N 29°33' W 090°42'0 0.0
2018-Feb-13 08:00N 29°33' W 090°42'0 0.0
2018-Feb-13 07:30N 29°33' W 090°42'0 0.0
2018-Feb-13 07:00N 29°33' W 090°42'0 0.0
2018-Feb-13 06:30N 29°33' W 090°42'0 0.0
2018-Feb-13 06:00N 29°33' W 090°42'0 0.0
2018-Feb-13 05:30N 29°33' W 090°42'0 0.0
2018-Feb-13 05:00N 29°33' W 090°42'0 0.0
2018-Feb-13 04:30N 29°33' W 090°42'0 0.0
2018-Feb-13 04:00N 29°33' W 090°42'0 0.0
2018-Feb-13 03:30N 29°33' W 090°42'0 0.0
2018-Feb-13 03:00N 29°33' W 090°42'0 1.0
2018-Feb-13 02:30N 29°33' W 090°42'3 5.1
2018-Feb-13 02:00N 29°30' W 090°43'3 5.1
2018-Feb-13 01:30N 29°27' W 090°43'2 4.2
2018-Feb-13 01:00N 29°25' W 090°43'1 0.1
2018-Feb-12 19:53N 29°25' W 090°44'3 7.9
2018-Feb-12 19:29N 29°28' W 090°43'4 8.0
2018-Feb-12 19:00N 29°32' W 090°42'3 5.2
2018-Feb-12 18:30N 29°34' W 090°43'3 6.2
2018-Feb-12 18:00N 29°32' W 090°46'  
Track history (hours):
 
Tides and Currents Weather Stations Pressure Air Temp Water Temp Dewpoint Dewpoint Depression Visibility Wind Speed Wind Dir Waves Ship Positions

Douglas B

Owner: TK TOWING, INC, MORGAN CITY, LA. More information available from US FCC via Universal Licensing System and Coast Guard Vessel Documentation Center.

Last reported at 2018-Feb-13 21:25 UTC. Time now 2018-Feb-24 15:58 UTC.
Position N 29°32' W 090°51'.
Warning: this ship's position is 10 days out of date.

Length 22 m; draft 8 m.

Type: Towing. MMSI: 367659090.

Date/timePositionNaut miles runAvg speedWind from/ knotsBaromVisibWave heightAir tempDewpointWater temp
2018-Feb-13 21:25N 29°32' W 090°51'3 6.6
2018-Feb-13 21:00N 29°32' W 090°48'3 5.7
2018-Feb-13 20:30N 29°34' W 090°45'2 3.9
2018-Feb-13 20:00N 29°34' W 090°43'1 2.7
2018-Feb-13 19:30N 29°33' W 090°41'0 0.0
2018-Feb-13 19:00N 29°33' W 090°41'0 0.0
2018-Feb-13 18:30N 29°33' W 090°41'0 0.0
2018-Feb-13 18:00N 29°33' W 090°41'0 0.0
2018-Feb-13 17:30N 29°33' W 090°41'0 0.0
2018-Feb-13 17:00N 29°33' W 090°41'0 0.0
2018-Feb-13 16:30N 29°33' W 090°41'0 0.0
2018-Feb-13 16:00N 29°33' W 090°41'0 0.0
2018-Feb-13 15:30N 29°33' W 090°41'0 0.0
2018-Feb-13 15:00N 29°33' W 090°41'0 0.0
2018-Feb-13 14:30N 29°33' W 090°41'0 0.0
2018-Feb-13 14:00N 29°33' W 090°41'0 0.0
2018-Feb-13 13:30N 29°33' W 090°41'0 0.5
2018-Feb-13 13:00N 29°33' W 090°42'0 0.5
2018-Feb-13 12:30N 29°33' W 090°42'0 0.0
2018-Feb-13 12:00N 29°33' W 090°42'0 0.0
2018-Feb-13 11:30N 29°33' W 090°42'0 0.0
2018-Feb-13 11:00N 29°33' W 090°42'0 0.0
2018-Feb-13 10:30N 29°33' W 090°42'0 0.0
2018-Feb-13 10:00N 29°33' W 090°42'0 0.0
2018-Feb-13 09:30N 29°33' W 090°42'0 0.0
2018-Feb-13 09:00N 29°33' W 090°42'0 0.0
2018-Feb-13 08:30N 29°33' W 090°42'0 0.0
2018-Feb-13 08:00N 29°33' W 090°42'0 0.0
2018-Feb-13 07:30N 29°33' W 090°42'0 0.0
2018-Feb-13 07:00N 29°33' W 090°42'0 0.0
2018-Feb-13 06:30N 29°33' W 090°42'0 0.0
2018-Feb-13 06:00N 29°33' W 090°42'0 0.0
2018-Feb-13 05:30N 29°33' W 090°42'0 0.0
2018-Feb-13 05:00N 29°33' W 090°42'0 0.0
2018-Feb-13 04:30N 29°33' W 090°42'0 0.0
2018-Feb-13 04:00N 29°33' W 090°42'0 0.0
2018-Feb-13 03:30N 29°33' W 090°42'0 0.0
2018-Feb-13 03:00N 29°33' W 090°42'0 1.0
2018-Feb-13 02:30N 29°33' W 090°42'3 5.1
2018-Feb-13 02:00N 29°30' W 090°43'3 5.1
2018-Feb-13 01:30N 29°27' W 090°43'2 4.2
2018-Feb-13 01:00N 29°25' W 090°43'1 0.1
2018-Feb-12 19:53N 29°25' W 090°44'3 7.9
2018-Feb-12 19:29N 29°28' W 090°43'4 8.0
2018-Feb-12 19:00N 29°32' W 090°42'3 5.2
2018-Feb-12 18:30N 29°34' W 090°43'3 6.2
2018-Feb-12 18:00N 29°32' W 090°46'  

Dump ship's entire track history